createdAt,value
2023-04-01T00:00:51.401Z,8.97
2023-04-01T00:01:51.284Z,8.97
2023-04-01T00:02:51.235Z,8.93
2023-04-01T00:03:51.392Z,9.04
2023-04-01T00:04:51.290Z,9.01
2023-04-01T00:05:51.419Z,9.02
2023-04-01T00:06:51.347Z,9.01
2023-04-01T00:07:51.283Z,9.02
2023-04-01T00:08:51.355Z,9.02
2023-04-01T00:09:51.218Z,9.04
2023-04-01T00:10:51.231Z,9.05
2023-04-01T00:11:51.271Z,9.02
2023-04-01T00:12:51.209Z,9.06
2023-04-01T00:13:51.150Z,9.02
2023-04-01T00:14:51.157Z,9.04
2023-04-01T00:15:51.205Z,9.05
2023-04-01T00:16:51.293Z,9.04
2023-04-01T00:17:51.167Z,9.05
2023-04-01T00:18:51.247Z,9.02
2023-04-01T00:19:51.142Z,9.04
2023-04-01T00:20:51.066Z,9.04
2023-04-01T00:21:51.152Z,9.02
2023-04-01T00:22:51.072Z,9.04
2023-04-01T00:23:51.139Z,9.09
2023-04-01T00:24:51.050Z,9.01
2023-04-01T00:25:51.033Z,9.01
2023-04-01T00:26:51.004Z,8.96
2023-04-01T00:27:51.072Z,8.97
2023-04-01T00:28:51.094Z,9.01
2023-04-01T00:29:51.012Z,8.97
2023-04-01T00:30:51.012Z,8.99
2023-04-01T00:31:51.036Z,8.94
2023-04-01T00:32:51.052Z,9.04
2023-04-01T00:33:51.036Z,9.04
2023-04-01T00:34:51.052Z,9.05
2023-04-01T00:35:51.013Z,9.02
2023-04-01T00:36:50.924Z,9.02
2023-04-01T00:37:50.921Z,9.04
2023-04-01T00:38:51.000Z,9.04
2023-04-01T00:39:50.901Z,9.06
2023-04-01T00:40:50.905Z,9.04
2023-04-01T00:41:50.924Z,9.02
2023-04-01T00:42:50.931Z,9.04
2023-04-01T00:43:50.964Z,8.99
2023-04-01T00:44:50.857Z,9.02
2023-04-01T00:45:50.900Z,8.99
2023-04-01T00:46:50.908Z,8.99
2023-04-01T00:47:50.775Z,8.97
2023-04-01T00:48:50.850Z,8.99
2023-04-01T00:49:50.894Z,8.97
2023-04-01T00:50:50.794Z,8.96
2023-04-01T00:51:50.802Z,8.96
2023-04-01T00:52:50.746Z,8.99
2023-04-01T00:53:50.747Z,9.01
2023-04-01T00:54:50.751Z,9.02
2023-04-01T00:55:50.825Z,9.01
2023-04-01T00:56:50.754Z,9.04
2023-04-01T00:57:50.718Z,9.05
2023-04-01T00:58:50.697Z,9.01
2023-04-01T00:59:50.745Z,9.05
2023-04-01T01:00:50.811Z,9.09
2023-04-01T01:01:50.630Z,9.04
2023-04-01T01:02:50.614Z,9.06
2023-04-01T01:03:50.650Z,9.01
2023-04-01T01:04:50.607Z,9.04
2023-04-01T01:05:50.910Z,9.02
2023-04-01T01:06:50.678Z,8.97
2023-04-01T01:07:50.700Z,8.99
2023-04-01T01:08:50.591Z,9.01
2023-04-01T01:09:50.675Z,8.97
2023-04-01T01:10:50.669Z,8.97
2023-04-01T01:11:50.688Z,9.01
2023-04-01T01:12:50.615Z,8.97
2023-04-01T01:13:50.546Z,8.99
2023-04-01T01:14:50.541Z,8.99
2023-04-01T01:15:50.546Z,8.96
2023-04-01T01:16:50.591Z,8.99
2023-04-01T01:17:50.705Z,8.96
2023-04-01T01:18:50.531Z,9.02
2023-04-01T01:19:50.501Z,8.96
2023-04-01T01:20:50.479Z,8.99
2023-04-01T01:21:50.554Z,8.97
2023-04-01T01:22:50.530Z,8.91
2023-04-01T01:23:50.437Z,8.93
2023-04-01T01:24:50.433Z,8.90
2023-04-01T01:25:50.439Z,8.90
2023-04-01T01:26:50.451Z,8.93
2023-04-01T01:27:50.365Z,8.90
2023-04-01T01:28:50.434Z,8.91
2023-04-01T01:29:50.349Z,8.96
2023-04-01T01:30:50.383Z,8.91
2023-04-01T01:31:50.233Z,8.93
2023-04-01T01:32:50.445Z,8.91
2023-04-01T01:33:50.322Z,8.93
2023-04-01T01:34:50.340Z,8.93
2023-04-01T01:35:50.369Z,8.96
2023-04-01T01:36:50.340Z,8.94
2023-04-01T01:37:50.412Z,8.96
2023-04-01T01:38:50.320Z,8.96
2023-04-01T01:39:50.312Z,8.93
2023-04-01T01:40:50.302Z,8.97
2023-04-01T01:41:50.320Z,8.90
2023-04-01T01:42:50.256Z,8.90
2023-04-01T01:43:50.265Z,8.93
2023-04-01T01:44:50.260Z,8.88
2023-04-01T01:45:50.285Z,8.87
2023-04-01T01:46:50.307Z,8.88
2023-04-01T01:47:50.268Z,8.90
2023-04-01T01:48:50.201Z,8.86
2023-04-01T01:49:50.264Z,8.86
2023-04-01T01:50:50.176Z,8.86
2023-04-01T01:51:50.153Z,8.87
2023-04-01T01:52:50.138Z,8.84
2023-04-01T01:53:50.188Z,8.83
2023-04-01T01:54:50.087Z,8.83
2023-04-01T01:55:50.141Z,8.87
2023-04-01T01:56:50.148Z,8.87
2023-04-01T01:57:49.970Z,8.87
2023-04-01T01:58:50.076Z,8.87
2023-04-01T01:59:50.184Z,8.94
2023-04-01T02:00:50.050Z,8.91
2023-04-01T02:01:50.126Z,8.93
2023-04-01T02:02:50.130Z,8.91
2023-04-01T02:03:50.136Z,8.91
2023-04-01T02:04:50.080Z,8.97
2023-04-01T02:05:50.089Z,8.96
2023-04-01T02:06:49.987Z,8.94
2023-04-01T02:07:50.008Z,8.94
2023-04-01T02:08:49.948Z,8.93
2023-04-01T02:09:50.042Z,8.90
2023-04-01T02:10:49.944Z,8.91
2023-04-01T02:11:49.962Z,8.93
2023-04-01T02:12:50.029Z,8.93
2023-04-01T02:13:49.931Z,8.94
2023-04-01T02:14:49.917Z,8.90
2023-04-01T02:15:49.783Z,8.87
2023-04-01T02:16:49.971Z,8.88
2023-04-01T02:17:49.934Z,8.90
2023-04-01T02:18:49.872Z,8.87
2023-04-01T02:19:49.856Z,8.88
2023-04-01T02:20:49.851Z,8.91
2023-04-01T02:21:49.923Z,8.86
2023-04-01T02:22:49.926Z,8.84
2023-04-01T02:23:49.809Z,8.87
2023-04-01T02:24:49.793Z,8.93
2023-04-01T02:25:49.765Z,8.87
2023-04-01T02:26:49.926Z,8.93
2023-04-01T02:27:49.699Z,8.91
2023-04-01T02:28:49.737Z,8.88
2023-04-01T02:29:49.730Z,8.87
2023-04-01T02:30:49.720Z,8.90
2023-04-01T02:31:49.808Z,8.86
2023-04-01T02:32:49.946Z,8.79
2023-04-01T02:33:49.732Z,8.81
2023-04-01T02:34:49.589Z,8.79
2023-04-01T02:35:49.569Z,8.81
2023-04-01T02:36:49.671Z,8.79
2023-04-01T02:37:49.753Z,8.79
2023-04-01T02:38:49.694Z,8.78
2023-04-01T02:39:49.723Z,8.72
2023-04-01T02:40:49.636Z,8.73
2023-04-01T02:41:49.621Z,8.75
2023-04-01T02:42:49.630Z,8.78
2023-04-01T02:43:49.650Z,8.72
2023-04-01T02:44:49.654Z,8.72
2023-04-01T02:45:49.568Z,8.73
2023-04-01T02:46:49.671Z,8.73
2023-04-01T02:47:49.637Z,8.69
2023-04-01T02:48:49.592Z,8.73
2023-04-01T02:49:49.512Z,8.73
2023-04-01T02:50:49.611Z,8.71
2023-04-01T02:51:49.534Z,8.71
2023-04-01T02:52:49.517Z,8.73
2023-04-01T02:53:49.462Z,8.72
2023-04-01T02:54:49.483Z,8.76
2023-04-01T02:55:49.469Z,8.73
2023-04-01T02:56:49.495Z,8.79
2023-04-01T02:57:49.461Z,8.76
2023-04-01T02:58:49.543Z,8.81
2023-04-01T02:59:49.444Z,8.81
2023-04-01T03:00:49.484Z,8.83
2023-04-01T03:01:49.424Z,8.83
2023-04-01T03:02:49.456Z,8.83
2023-04-01T03:03:49.399Z,8.83
2023-04-01T03:04:49.460Z,8.79
2023-04-01T03:05:49.222Z,8.78
2023-04-01T03:06:49.486Z,8.83
2023-04-01T03:07:49.377Z,8.78
2023-04-01T03:08:49.364Z,8.78
2023-04-01T03:09:49.434Z,8.79
2023-04-01T03:10:49.324Z,8.81
2023-04-01T03:11:49.348Z,8.83
2023-04-01T03:12:49.313Z,8.87
2023-04-01T03:13:49.278Z,8.84
2023-04-01T03:14:49.416Z,8.84
2023-04-01T03:15:49.317Z,8.84
2023-04-01T03:16:49.375Z,8.83
2023-04-01T03:17:49.334Z,8.84
2023-04-01T03:18:49.217Z,8.79
2023-04-01T03:19:49.299Z,8.81
2023-04-01T03:20:49.296Z,8.86
2023-04-01T03:21:49.303Z,8.83
2023-04-01T03:22:49.294Z,8.83
2023-04-01T03:23:49.239Z,8.81
2023-04-01T03:24:49.177Z,8.84
2023-04-01T03:25:49.280Z,8.84
2023-04-01T03:26:49.200Z,8.78
2023-04-01T03:27:49.202Z,8.75
2023-04-01T03:28:49.177Z,8.81
2023-04-01T03:29:49.187Z,8.78
2023-04-01T03:30:49.280Z,8.78
2023-04-01T03:31:49.107Z,8.83
2023-04-01T03:32:49.148Z,8.78
2023-04-01T03:33:49.095Z,8.83
2023-04-01T03:34:49.090Z,8.86
2023-04-01T03:35:49.158Z,8.86
2023-04-01T03:36:49.143Z,8.83
2023-04-01T03:37:49.055Z,8.86
2023-04-01T03:38:49.040Z,8.79
2023-04-01T03:39:49.020Z,8.86
2023-04-01T03:40:48.904Z,8.83
2023-04-01T03:41:49.079Z,8.83
2023-04-01T03:42:49.031Z,8.79
2023-04-01T03:43:49.060Z,8.78
2023-04-01T03:44:48.888Z,8.79
2023-04-01T03:45:48.893Z,8.81
2023-04-01T03:46:48.940Z,8.79
2023-04-01T03:47:48.903Z,8.81
2023-04-01T03:48:48.807Z,8.81
2023-04-01T03:49:49.016Z,8.76
2023-04-01T03:50:48.892Z,8.76
2023-04-01T03:51:48.780Z,8.81
2023-04-01T03:52:48.791Z,8.83
2023-04-01T03:53:49.001Z,8.73
2023-04-01T03:54:48.906Z,8.78
2023-04-01T03:55:48.880Z,8.78
2023-04-01T03:56:48.890Z,8.79
2023-04-01T03:57:48.837Z,8.78
2023-04-01T03:58:48.929Z,8.78
2023-04-01T03:59:48.800Z,8.81
2023-04-01T04:00:48.804Z,8.83
2023-04-01T04:01:48.841Z,8.84
2023-04-01T04:02:48.854Z,8.86
2023-04-01T04:03:48.889Z,8.86
2023-04-01T04:04:48.802Z,8.88
2023-04-01T04:05:48.909Z,8.88
2023-04-01T04:06:48.729Z,8.87
2023-04-01T04:07:48.744Z,8.90
2023-04-01T04:08:48.839Z,8.86
2023-04-01T04:09:48.771Z,8.91
2023-04-01T04:10:48.746Z,8.87
2023-04-01T04:11:48.668Z,8.86
2023-04-01T04:12:48.724Z,8.88
2023-04-01T04:13:48.748Z,8.90
2023-04-01T04:14:48.639Z,8.90
2023-04-01T04:15:48.648Z,8.90
2023-04-01T04:16:48.700Z,8.90
2023-04-01T04:17:48.650Z,8.83
2023-04-01T04:18:48.619Z,8.86
2023-04-01T04:19:48.604Z,8.87
2023-04-01T04:20:48.596Z,8.91
2023-04-01T04:21:48.659Z,8.84
2023-04-01T04:22:48.563Z,8.87
2023-04-01T04:23:48.549Z,8.86
2023-04-01T04:24:48.533Z,8.83
2023-04-01T04:25:48.525Z,8.86
2023-04-01T04:26:48.594Z,8.86
2023-04-01T04:27:48.459Z,8.87
2023-04-01T04:28:48.541Z,8.87
2023-04-01T04:29:48.368Z,8.93
2023-04-01T04:30:48.617Z,8.91
2023-04-01T04:31:48.556Z,8.87
2023-04-01T04:32:48.480Z,8.84
2023-04-01T04:33:48.456Z,8.83
2023-04-01T04:34:48.467Z,8.81
2023-04-01T04:35:48.411Z,8.81
2023-04-01T04:36:48.287Z,8.81
2023-04-01T04:37:48.361Z,8.84
2023-04-01T04:38:48.363Z,8.78
2023-04-01T04:39:48.377Z,8.79
2023-04-01T04:40:48.369Z,8.75
2023-04-01T04:41:48.377Z,8.79
2023-04-01T04:42:48.425Z,8.79
2023-04-01T04:43:48.374Z,8.79
2023-04-01T04:44:48.314Z,8.76
2023-04-01T04:45:48.373Z,8.75
2023-04-01T04:46:48.402Z,8.76
2023-04-01T04:47:48.319Z,8.75
2023-04-01T04:48:48.219Z,8.75
2023-04-01T04:49:48.306Z,8.72
2023-04-01T04:50:48.306Z,8.71
2023-04-01T04:51:48.228Z,8.72
2023-04-01T04:52:48.290Z,8.71
2023-04-01T04:53:49.528Z,8.71
2023-04-01T04:54:48.219Z,8.71
2023-04-01T04:55:48.215Z,8.68
2023-04-01T04:56:48.060Z,8.71
2023-04-01T04:57:48.063Z,8.75
2023-04-01T04:58:48.012Z,8.69
2023-04-01T04:59:47.994Z,8.68
2023-04-01T05:00:47.951Z,8.71
2023-04-01T05:01:48.169Z,8.69
2023-04-01T05:02:48.391Z,8.72
2023-04-01T05:03:48.178Z,8.73
2023-04-01T05:04:48.184Z,8.68
2023-04-01T05:05:48.110Z,8.71
2023-04-01T05:06:48.043Z,8.72
2023-04-01T05:07:48.137Z,8.62
2023-04-01T05:08:48.091Z,8.66
2023-04-01T05:09:48.020Z,8.71
2023-04-01T05:10:48.045Z,8.63
2023-04-01T05:11:48.051Z,8.69
2023-04-01T05:12:47.973Z,8.60
2023-04-01T05:13:48.047Z,8.69
2023-04-01T05:14:47.950Z,8.65
2023-04-01T05:15:47.940Z,8.66
2023-04-01T05:16:48.007Z,8.63
2023-04-01T05:17:47.992Z,8.63
2023-04-01T05:18:48.042Z,8.72
2023-04-01T05:19:47.988Z,8.72
2023-04-01T05:20:47.903Z,8.69
2023-04-01T05:21:47.976Z,8.71
2023-04-01T05:22:47.886Z,8.69
2023-04-01T05:23:47.944Z,8.72
2023-04-01T05:24:47.909Z,8.76
2023-04-01T05:25:47.985Z,8.75
2023-04-01T05:26:47.921Z,8.69
2023-04-01T05:27:47.838Z,8.69
2023-04-01T05:28:47.816Z,8.76
2023-04-01T05:29:47.731Z,8.73
2023-04-01T05:30:47.808Z,8.71
2023-04-01T05:31:47.735Z,8.72
2023-04-01T05:32:47.863Z,8.71
2023-04-01T05:33:47.726Z,8.73
2023-04-01T05:34:47.750Z,8.78
2023-04-01T05:35:47.900Z,8.73
2023-04-01T05:36:47.746Z,8.76
2023-04-01T05:37:47.832Z,8.75
2023-04-01T05:38:47.758Z,8.78
2023-04-01T05:39:47.786Z,8.75
2023-04-01T05:40:47.869Z,8.78
2023-04-01T05:41:47.801Z,8.76
2023-04-01T05:42:47.659Z,8.78
2023-04-01T05:43:47.749Z,8.78
2023-04-01T05:44:47.636Z,8.76
2023-04-01T05:45:47.677Z,8.79
2023-04-01T05:46:47.790Z,8.79
2023-04-01T05:47:47.728Z,8.73
2023-04-01T05:48:47.690Z,8.75
2023-04-01T05:49:47.638Z,8.72
2023-04-01T05:50:47.651Z,8.76
2023-04-01T05:51:47.644Z,8.72
2023-04-01T05:52:47.562Z,8.76
2023-04-01T05:53:47.555Z,8.73
2023-04-01T05:54:47.566Z,8.78
2023-04-01T05:55:47.552Z,8.72
2023-04-01T05:56:48.697Z,8.68
2023-04-01T05:57:47.639Z,8.65
2023-04-01T05:58:47.523Z,8.69
2023-04-01T05:59:47.505Z,8.65
2023-04-01T06:00:47.918Z,8.62
2023-04-01T06:01:47.506Z,8.65
2023-04-01T06:02:47.707Z,8.60
2023-04-01T06:03:47.743Z,8.62
2023-04-01T06:04:47.524Z,8.58
2023-04-01T06:05:47.330Z,8.63
2023-04-01T06:06:47.281Z,8.60
2023-04-01T06:07:47.342Z,8.60
2023-04-01T06:08:47.295Z,8.58
2023-04-01T06:09:47.387Z,8.55
2023-04-01T06:10:47.307Z,8.54
2023-04-01T06:11:47.329Z,8.54
2023-04-01T06:12:47.251Z,8.51
2023-04-01T06:13:47.251Z,8.60
2023-04-01T06:14:47.248Z,8.55
2023-04-01T06:15:47.233Z,8.57
2023-04-01T06:16:47.217Z,8.55
2023-04-01T06:17:47.240Z,8.60
2023-04-01T06:18:47.137Z,8.60
2023-04-01T06:19:47.201Z,8.57
2023-04-01T06:20:47.212Z,8.57
2023-04-01T06:21:47.176Z,8.53
2023-04-01T06:22:47.155Z,8.55
2023-04-01T06:23:47.172Z,8.55
2023-04-01T06:24:47.210Z,8.53
2023-04-01T06:25:47.225Z,8.53
2023-04-01T06:26:47.217Z,8.55
2023-04-01T06:27:47.206Z,8.54
2023-04-01T06:28:47.216Z,8.57
2023-04-01T06:29:47.233Z,8.62
2023-04-01T06:30:47.342Z,8.66
2023-04-01T06:31:47.379Z,8.65
2023-04-01T06:32:47.097Z,8.65
2023-04-01T06:33:47.011Z,8.63
2023-04-01T06:34:47.113Z,8.65
2023-04-01T06:35:47.133Z,8.68
2023-04-01T06:36:47.255Z,8.65
2023-04-01T06:37:47.197Z,8.63
2023-04-01T06:38:47.168Z,8.66
2023-04-01T06:39:46.985Z,8.65
2023-04-01T06:40:47.319Z,8.69
2023-04-01T06:41:47.077Z,8.73
2023-04-01T06:42:47.063Z,8.73
2023-04-01T06:43:47.047Z,8.73
2023-04-01T06:44:47.005Z,8.76
2023-04-01T06:45:47.187Z,8.78
2023-04-01T06:46:47.030Z,8.75
2023-04-01T06:47:47.080Z,8.83
2023-04-01T06:48:47.039Z,8.79
2023-04-01T06:49:47.002Z,8.76
2023-04-01T06:50:47.056Z,8.79
2023-04-01T06:51:46.955Z,8.83
2023-04-01T06:52:46.926Z,8.84
2023-04-01T06:53:46.985Z,8.87
2023-04-01T06:54:46.972Z,8.88
2023-04-01T06:55:46.767Z,8.88
2023-04-01T06:56:47.071Z,8.86
2023-04-01T06:57:47.013Z,8.94
2023-04-01T06:58:46.858Z,8.94
2023-04-01T06:59:46.878Z,8.91
2023-04-01T07:00:46.698Z,8.94
2023-04-01T07:01:46.970Z,9.02
2023-04-01T07:02:46.870Z,9.04
2023-04-01T07:03:46.889Z,9.04
2023-04-01T07:04:46.881Z,9.05
2023-04-01T07:05:46.837Z,9.09
2023-04-01T07:06:46.792Z,9.06
2023-04-01T07:07:46.854Z,9.06
2023-04-01T07:08:46.878Z,9.12
2023-04-01T07:09:46.838Z,9.20
2023-04-01T07:10:46.762Z,9.20
2023-04-01T07:11:46.774Z,9.16
2023-04-01T07:12:46.804Z,9.16
2023-04-01T07:13:46.969Z,9.21
2023-04-01T07:14:46.697Z,9.18
2023-04-01T07:15:46.722Z,9.24
2023-04-01T07:16:46.771Z,9.25
2023-04-01T07:17:46.773Z,9.25
2023-04-01T07:18:46.885Z,9.30
2023-04-01T07:19:46.647Z,9.28
2023-04-01T07:20:46.647Z,9.34
2023-04-01T07:21:46.730Z,9.35
2023-04-01T07:22:46.637Z,9.38
2023-04-01T07:23:46.609Z,9.40
2023-04-01T07:24:46.597Z,9.45
2023-04-01T07:25:46.605Z,9.48
2023-04-01T07:26:47.173Z,9.52
2023-04-01T07:27:46.649Z,9.52
2023-04-01T07:28:46.707Z,9.53
2023-04-01T07:29:46.673Z,9.49
2023-04-01T07:30:46.612Z,9.52
2023-04-01T07:31:46.525Z,9.50
2023-04-01T07:32:46.536Z,9.48
2023-04-01T07:33:46.522Z,9.50
2023-04-01T07:34:46.614Z,9.52
2023-04-01T07:35:46.561Z,9.52
2023-04-01T07:36:46.520Z,9.42
2023-04-01T07:37:46.350Z,9.42
2023-04-01T07:38:46.385Z,9.40
2023-04-01T07:39:46.482Z,9.35
2023-04-01T07:40:46.466Z,9.42
2023-04-01T07:41:46.456Z,9.43
2023-04-01T07:42:46.449Z,9.42
2023-04-01T07:43:46.461Z,9.43
2023-04-01T07:44:46.464Z,9.40
2023-04-01T07:45:46.396Z,9.40
2023-04-01T07:46:46.739Z,9.45
2023-04-01T07:47:46.423Z,9.45
2023-04-01T07:48:46.361Z,9.45
2023-04-01T07:49:46.483Z,9.46
2023-04-01T07:50:48.027Z,9.40
2023-04-01T07:51:46.400Z,9.42
2023-04-01T07:52:46.354Z,9.39
2023-04-01T07:53:46.322Z,9.35
2023-04-01T07:54:46.297Z,9.39
2023-04-01T07:55:46.413Z,9.38
2023-04-01T07:56:46.349Z,9.32
2023-04-01T07:57:46.353Z,9.35
2023-04-01T07:58:46.379Z,9.40
2023-04-01T07:59:46.286Z,9.40
2023-04-01T08:00:46.302Z,9.39
2023-04-01T08:01:46.291Z,9.43
2023-04-01T08:02:46.361Z,9.42
2023-04-01T08:03:46.442Z,9.43
2023-04-01T08:04:46.319Z,9.40
2023-04-01T08:05:46.229Z,9.38
2023-04-01T08:06:46.164Z,9.35
2023-04-01T08:07:46.152Z,9.45
2023-04-01T08:08:46.145Z,9.42
2023-04-01T08:09:46.130Z,9.49
2023-04-01T08:10:46.110Z,9.52
2023-04-01T08:11:46.104Z,9.58
2023-04-01T08:12:46.102Z,9.60
2023-04-01T08:13:46.102Z,9.66
2023-04-01T08:14:46.084Z,9.73
2023-04-01T08:15:46.136Z,9.67
2023-04-01T08:16:46.117Z,9.66
2023-04-01T08:17:46.135Z,9.70
2023-04-01T08:18:46.036Z,9.71
2023-04-01T08:19:46.040Z,9.75
2023-04-01T08:20:46.082Z,9.73
2023-04-01T08:21:46.082Z,9.71
2023-04-01T08:22:46.072Z,9.76
2023-04-01T08:23:46.120Z,9.83
2023-04-01T08:24:47.910Z,9.88
2023-04-01T08:25:45.982Z,9.88
2023-04-01T08:26:45.957Z,9.93
2023-04-01T08:27:46.001Z,9.93
2023-04-01T08:28:45.982Z,9.94
2023-04-01T08:29:45.997Z,9.99
2023-04-01T08:30:45.980Z,10.01
2023-04-01T08:31:45.953Z,10.00
2023-04-01T08:32:45.939Z,9.96
2023-04-01T08:33:45.887Z,10.00
2023-04-01T08:34:45.990Z,10.06
2023-04-01T08:35:46.004Z,10.15
2023-04-01T08:36:45.873Z,10.21
2023-04-01T08:37:45.731Z,10.21
2023-04-01T08:38:45.904Z,10.24
2023-04-01T08:39:45.907Z,10.26
2023-04-01T08:40:45.881Z,10.34
2023-04-01T08:41:45.831Z,10.37
2023-04-01T08:42:45.787Z,10.40
2023-04-01T08:43:45.813Z,10.44
2023-04-01T08:44:45.688Z,10.51
2023-04-01T08:45:45.751Z,10.47
2023-04-01T08:46:45.775Z,10.42
2023-04-01T08:47:45.871Z,10.52
2023-04-01T08:48:45.723Z,10.44
2023-04-01T08:49:45.847Z,10.40
2023-04-01T08:50:45.723Z,10.36
2023-04-01T08:51:45.847Z,10.40
2023-04-01T08:52:45.802Z,10.39
2023-04-01T08:53:45.598Z,10.36
2023-04-01T08:54:45.612Z,10.33
2023-04-01T08:55:45.744Z,10.36
2023-04-01T08:56:45.574Z,10.24
2023-04-01T08:57:45.502Z,10.26
2023-04-01T08:58:45.496Z,10.33
2023-04-01T08:59:45.566Z,10.36
2023-04-01T09:00:45.713Z,10.47
2023-04-01T09:01:45.740Z,10.43
2023-04-01T09:02:45.686Z,10.53
2023-04-01T09:03:45.746Z,10.52
2023-04-01T09:04:45.602Z,10.58
2023-04-01T09:05:45.580Z,10.59
2023-04-01T09:06:45.647Z,10.60
2023-04-01T09:07:45.537Z,10.66
2023-04-01T09:08:45.581Z,10.70
2023-04-01T09:09:45.454Z,10.74
2023-04-01T09:10:45.421Z,10.76
2023-04-01T09:11:45.464Z,10.78
2023-04-01T09:12:45.418Z,10.71
2023-04-01T09:13:45.328Z,10.77
2023-04-01T09:14:45.357Z,10.84
2023-04-01T09:15:45.420Z,10.86
2023-04-01T09:16:45.346Z,10.95
2023-04-01T09:17:45.496Z,10.94
2023-04-01T09:18:45.384Z,10.86
2023-04-01T09:19:45.307Z,10.74
2023-04-01T09:20:45.322Z,10.78
2023-04-01T09:21:45.410Z,10.80
2023-04-01T09:22:45.362Z,10.73
2023-04-01T09:23:45.237Z,10.78
2023-04-01T09:24:45.291Z,10.78
2023-04-01T09:25:45.232Z,10.81
2023-04-01T09:26:45.443Z,10.68
2023-04-01T09:27:45.395Z,10.66
2023-04-01T09:28:45.460Z,10.63
2023-04-01T09:29:45.358Z,10.68
2023-04-01T09:30:45.365Z,10.63
2023-04-01T09:31:45.525Z,10.60
2023-04-01T09:32:45.445Z,10.59
2023-04-01T09:33:45.312Z,10.56
2023-04-01T09:34:45.357Z,10.56
2023-04-01T09:35:45.330Z,10.55
2023-04-01T09:36:45.219Z,10.55
2023-04-01T09:37:45.250Z,10.53
2023-04-01T09:38:45.132Z,10.56
2023-04-01T09:39:45.061Z,10.63
2023-04-01T09:40:45.248Z,10.59
2023-04-01T09:41:45.036Z,10.65
2023-04-01T09:42:45.195Z,10.71
2023-04-01T09:43:45.335Z,10.65
2023-04-01T09:44:45.170Z,10.68
2023-04-01T09:45:45.223Z,10.76
2023-04-01T09:46:45.178Z,10.78
2023-04-01T09:47:45.283Z,10.80
2023-04-01T09:48:44.967Z,10.88
2023-04-01T09:49:45.182Z,10.81
2023-04-01T09:50:45.080Z,10.86
2023-04-01T09:51:45.083Z,10.88
2023-04-01T09:52:46.487Z,10.91
2023-04-01T09:53:45.117Z,10.95
2023-04-01T09:54:45.172Z,10.91
2023-04-01T09:55:44.920Z,10.94
2023-04-01T09:56:44.933Z,11.01
2023-04-01T09:57:44.969Z,11.11
2023-04-01T09:58:45.076Z,11.17
2023-04-01T09:59:44.868Z,11.21
2023-04-01T10:00:45.086Z,11.25
2023-04-01T10:01:45.032Z,11.32
2023-04-01T10:02:44.854Z,11.38
2023-04-01T10:03:44.862Z,11.41
2023-04-01T10:04:44.850Z,11.44
2023-04-01T10:05:44.885Z,11.47
2023-04-01T10:06:44.892Z,11.46
2023-04-01T10:07:44.785Z,11.54
2023-04-01T10:08:44.849Z,11.59
2023-04-01T10:09:44.771Z,11.68
2023-04-01T10:10:44.901Z,11.82
2023-04-01T10:11:44.749Z,11.96
2023-04-01T10:12:44.719Z,12.12
2023-04-01T10:13:44.727Z,12.11
2023-04-01T10:14:44.708Z,12.26
2023-04-01T10:15:44.808Z,12.29
2023-04-01T10:16:44.730Z,12.31
2023-04-01T10:17:44.705Z,12.21
2023-04-01T10:18:44.646Z,12.31
2023-04-01T10:19:44.701Z,12.29
2023-04-01T10:20:44.628Z,12.42
2023-04-01T10:21:44.606Z,12.29
2023-04-01T10:22:44.651Z,12.26
2023-04-01T10:23:44.724Z,12.24
2023-04-01T10:24:44.705Z,12.24
2023-04-01T10:25:44.768Z,12.33
2023-04-01T10:26:44.772Z,12.31
2023-04-01T10:27:44.685Z,12.29
2023-04-01T10:28:44.713Z,12.12
2023-04-01T10:29:44.708Z,12.13
2023-04-01T10:30:44.710Z,12.21
2023-04-01T10:31:44.801Z,12.19
2023-04-01T10:32:44.809Z,12.24
2023-04-01T10:33:44.739Z,12.38
2023-04-01T10:34:44.649Z,12.33
2023-04-01T10:35:44.671Z,12.45
2023-04-01T10:36:44.627Z,12.49
2023-04-01T10:37:44.608Z,12.37
2023-04-01T10:38:44.660Z,12.29
2023-04-01T10:39:44.555Z,12.13
2023-04-01T10:40:44.641Z,12.20
2023-04-01T10:41:44.389Z,12.16
2023-04-01T10:42:44.534Z,12.16
2023-04-01T10:43:44.507Z,12.19
2023-04-01T10:44:44.622Z,12.20
2023-04-01T10:45:44.568Z,12.13
2023-04-01T10:46:44.501Z,12.11
2023-04-01T10:47:44.521Z,12.11
2023-04-01T10:48:44.489Z,12.19
2023-04-01T10:49:44.542Z,12.08
2023-04-01T10:50:44.451Z,12.08
2023-04-01T10:51:44.437Z,12.01
2023-04-01T10:52:44.427Z,11.96
2023-04-01T10:53:44.410Z,11.97
2023-04-01T10:54:44.546Z,12.04
2023-04-01T10:55:44.452Z,12.06
2023-04-01T10:56:44.517Z,12.06
2023-04-01T10:57:44.403Z,12.19
2023-04-01T10:58:44.388Z,12.16
2023-04-01T10:59:44.481Z,12.27
2023-04-01T11:00:44.344Z,12.41
2023-04-01T11:01:44.502Z,12.39
2023-04-01T11:02:44.415Z,12.38
2023-04-01T11:03:44.374Z,12.34
2023-04-01T11:04:44.337Z,12.39
2023-04-01T11:05:44.361Z,12.42
2023-04-01T11:06:44.297Z,12.31
2023-04-01T11:07:48.292Z,12.41
2023-04-01T11:08:44.314Z,12.41
2023-04-01T11:09:44.239Z,12.41
2023-04-01T11:10:44.308Z,12.49
2023-04-01T11:11:44.235Z,12.49
2023-04-01T11:12:44.223Z,12.49
2023-04-01T11:13:44.264Z,12.56
2023-04-01T11:14:44.221Z,12.60
2023-04-01T11:15:44.249Z,12.62
2023-04-01T11:16:44.340Z,12.63
2023-04-01T11:17:44.266Z,12.62
2023-04-01T11:18:44.216Z,12.62
2023-04-01T11:19:44.219Z,12.60
2023-04-01T11:20:44.214Z,12.49
2023-04-01T11:21:44.268Z,12.54
2023-04-01T11:22:44.256Z,12.63
2023-04-01T11:23:51.983Z,12.63
2023-04-01T11:24:44.156Z,12.69
2023-04-01T11:25:44.125Z,12.66
2023-04-01T11:26:44.153Z,12.63
2023-04-01T11:27:44.094Z,12.62
2023-04-01T11:28:44.157Z,12.63
2023-04-01T11:29:56.751Z,12.64
2023-04-01T11:30:44.107Z,12.63
2023-04-01T11:31:43.989Z,12.59
2023-04-01T11:32:44.147Z,12.59
2023-04-01T11:33:44.137Z,12.66
2023-04-01T11:34:44.047Z,12.74
2023-04-01T11:35:44.074Z,12.74
2023-04-01T11:36:44.070Z,12.71
2023-04-01T11:37:44.032Z,12.79
2023-04-01T11:38:43.842Z,12.88
2023-04-01T11:39:43.837Z,12.92
2023-04-01T11:40:43.817Z,12.92
2023-04-01T11:41:43.915Z,12.92
2023-04-01T11:42:44.019Z,12.97
2023-04-01T11:43:44.026Z,12.87
2023-04-01T11:44:44.002Z,12.89
2023-04-01T11:45:43.885Z,12.97
2023-04-01T11:46:44.032Z,12.97
2023-04-01T11:47:44.010Z,12.96
2023-04-01T11:48:45.875Z,12.93
2023-04-01T11:49:43.934Z,12.89
2023-04-01T11:50:43.999Z,12.81
2023-04-01T11:51:43.918Z,12.75
2023-04-01T11:52:43.909Z,12.74
2023-04-01T11:53:43.886Z,12.63
2023-04-01T11:54:43.867Z,12.52
2023-04-01T11:55:43.844Z,12.56
2023-04-01T11:56:43.923Z,12.51
2023-04-01T11:57:43.909Z,12.49
2023-04-01T11:58:43.824Z,12.46
2023-04-01T11:59:43.806Z,12.44
2023-04-01T12:00:43.884Z,12.39
2023-04-01T12:01:43.639Z,12.34
2023-04-01T12:02:43.848Z,12.41
2023-04-01T12:03:43.743Z,12.45
2023-04-01T12:04:43.618Z,12.44
2023-04-01T12:05:43.616Z,12.49
2023-04-01T12:06:43.566Z,12.49
2023-04-01T12:07:45.359Z,12.46
2023-04-01T12:08:43.575Z,12.46
2023-04-01T12:09:43.523Z,12.42
2023-04-01T12:10:43.485Z,12.44
2023-04-01T12:11:43.505Z,12.44
2023-04-01T12:12:54.185Z,12.46
2023-04-01T12:13:43.457Z,12.54
2023-04-01T12:14:43.495Z,12.59
2023-04-01T12:15:43.444Z,12.56
2023-04-01T12:16:43.591Z,12.60
2023-04-01T12:17:43.545Z,12.63
2023-04-01T12:18:43.449Z,12.56
2023-04-01T12:19:43.446Z,12.64
2023-04-01T12:20:43.372Z,12.62
2023-04-01T12:21:43.416Z,12.67
2023-04-01T12:22:43.418Z,12.66
2023-04-01T12:23:43.584Z,12.63
2023-04-01T12:24:43.536Z,12.66
2023-04-01T12:25:43.509Z,12.60
2023-04-01T12:26:43.507Z,12.69
2023-04-01T12:27:43.435Z,12.66
2023-04-01T12:28:43.536Z,12.64
2023-04-01T12:29:43.457Z,12.66
2023-04-01T12:30:43.534Z,12.63
2023-04-01T12:31:43.505Z,12.57
2023-04-01T12:32:43.423Z,12.62
2023-04-01T12:33:43.442Z,12.69
2023-04-01T12:34:43.373Z,12.75
2023-04-01T12:35:43.493Z,12.69
2023-04-01T12:36:43.384Z,12.78
2023-04-01T12:37:43.259Z,12.70
2023-04-01T12:38:43.202Z,12.74
2023-04-01T12:39:43.358Z,12.78
2023-04-01T12:40:43.423Z,12.78
2023-04-01T12:41:43.254Z,12.82
2023-04-01T12:42:43.349Z,12.81
2023-04-01T12:43:43.276Z,12.79
2023-04-01T12:44:43.206Z,12.87
2023-04-01T12:45:43.391Z,12.71
2023-04-01T12:46:43.274Z,12.67
2023-04-01T12:47:43.314Z,12.66
2023-04-01T12:48:43.259Z,12.54
2023-04-01T12:49:43.183Z,12.54
2023-04-01T12:50:43.273Z,12.41
2023-04-01T12:51:43.328Z,12.45
2023-04-01T12:52:43.187Z,12.44
2023-04-01T12:53:43.176Z,12.42
2023-04-01T12:54:43.258Z,12.33
2023-04-01T12:55:43.069Z,12.31
2023-04-01T12:56:43.260Z,12.27
2023-04-01T12:57:43.174Z,12.20
2023-04-01T12:58:43.171Z,12.06
2023-04-01T12:59:43.263Z,11.96
2023-04-01T13:00:45.033Z,11.94
2023-04-01T13:01:43.063Z,11.87
2023-04-01T13:02:43.058Z,11.86
2023-04-01T13:03:43.106Z,11.82
2023-04-01T13:04:43.061Z,11.89
2023-04-01T13:05:43.124Z,11.89
2023-04-01T13:06:43.104Z,11.99
2023-04-01T13:07:43.086Z,11.94
2023-04-01T13:08:43.080Z,11.97
2023-04-01T13:09:42.876Z,12.06